createdAt,value
2019-06-28T00:01:52.587Z,2.40
2019-06-28T00:03:56.015Z,2.47
2019-06-28T00:05:59.538Z,2.60
2019-06-28T00:08:02.966Z,2.53
2019-06-28T00:10:07.559Z,2.27
2019-06-28T00:12:11.056Z,2.50
2019-06-28T00:14:14.640Z,2.57
2019-06-28T00:16:18.140Z,2.57
2019-06-28T00:18:21.578Z,2.03
2019-06-28T00:20:25.205Z,2.27
2019-06-28T00:22:28.692Z,2.97
2019-06-28T00:24:32.139Z,2.37
2019-06-28T00:26:35.661Z,2.17
2019-06-28T00:28:39.078Z,2.43
2019-06-28T00:30:42.525Z,2.27
2019-06-28T00:32:46.132Z,2.10
2019-06-28T00:34:49.576Z,2.63
2019-06-28T00:36:52.998Z,2.53
2019-06-28T00:38:56.518Z,2.67
2019-06-28T00:41:00.102Z,2.87
2019-06-28T00:43:03.512Z,2.87
2019-06-28T00:45:07.114Z,2.73
2019-06-28T00:47:10.604Z,2.30
2019-06-28T00:49:14.037Z,2.20
2019-06-28T00:51:17.488Z,2.17
2019-06-28T00:53:20.968Z,2.30
2019-06-28T00:55:24.403Z,2.60
2019-06-28T00:57:27.922Z,2.13
2019-06-28T00:59:31.486Z,2.47
2019-06-28T01:01:34.909Z,2.50
2019-06-28T01:03:38.341Z,2.43
2019-06-28T01:05:41.778Z,2.50
2019-06-28T01:07:45.228Z,2.73
2019-06-28T01:09:48.642Z,2.17
2019-06-28T01:11:52.156Z,2.20
2019-06-28T01:13:55.568Z,2.10
2019-06-28T01:15:59.013Z,2.50
2019-06-28T01:18:02.442Z,2.10
2019-06-28T01:20:09.043Z,2.43
2019-06-28T01:22:12.544Z,2.43
2019-06-28T01:24:16.253Z,2.30
2019-06-28T01:26:19.690Z,2.47
2019-06-28T01:28:23.282Z,2.57
2019-06-28T01:30:29.780Z,2.43
2019-06-28T01:32:33.280Z,2.57
2019-06-28T01:34:36.703Z,2.80
2019-06-28T01:36:40.311Z,2.47
2019-06-28T01:38:43.776Z,3.20
2019-06-28T01:40:47.287Z,2.40
2019-06-28T01:42:53.839Z,2.33
2019-06-28T01:44:55.935Z,2.60
2019-06-28T01:46:59.365Z,2.50
2019-06-28T01:49:02.813Z,2.37
2019-06-28T01:51:06.305Z,2.50
2019-06-28T01:53:09.748Z,2.63
2019-06-28T01:55:13.247Z,2.77
2019-06-28T01:57:16.668Z,2.40
2019-06-28T01:59:20.120Z,2.80
2019-06-28T02:01:23.623Z,2.60
2019-06-28T02:03:27.197Z,2.70
2019-06-28T02:05:30.681Z,2.53
2019-06-28T02:07:34.212Z,2.40
2019-06-28T02:09:37.710Z,3.23
2019-06-28T02:11:42.542Z,2.53
2019-06-28T02:13:46.153Z,2.40
2019-06-28T02:15:49.574Z,2.73
2019-06-28T02:17:53.164Z,2.63
2019-06-28T02:19:56.586Z,2.77
2019-06-28T02:22:00.049Z,2.60
2019-06-28T02:24:03.671Z,3.07
2019-06-28T02:26:07.169Z,3.20
2019-06-28T02:28:10.627Z,2.67
2019-06-28T02:30:16.805Z,3.00
2019-06-28T02:32:19.410Z,2.90
2019-06-28T02:34:22.858Z,2.50
2019-06-28T02:36:26.353Z,3.20
2019-06-28T02:38:29.799Z,2.97
2019-06-28T02:40:33.294Z,3.00
2019-06-28T02:42:36.787Z,2.60
2019-06-28T02:44:40.225Z,2.60
2019-06-28T02:46:43.656Z,2.87
2019-06-28T02:48:47.112Z,2.80
2019-06-28T02:50:50.526Z,2.73
2019-06-28T02:52:53.953Z,2.47
2019-06-28T02:54:57.463Z,3.00
2019-06-28T02:57:00.964Z,3.37
2019-06-28T02:59:04.472Z,3.17
2019-06-28T03:01:07.900Z,3.40
2019-06-28T03:03:11.342Z,3.07
2019-06-28T03:05:14.911Z,3.20
2019-06-28T03:07:18.406Z,2.97
2019-06-28T03:09:21.855Z,3.10
2019-06-28T03:11:25.300Z,2.93
2019-06-28T03:13:28.803Z,3.00
2019-06-28T03:15:32.253Z,3.07
2019-06-28T03:17:35.674Z,3.17
2019-06-28T03:19:39.145Z,3.40
2019-06-28T03:21:42.831Z,3.37
2019-06-28T03:23:46.331Z,3.37
2019-06-28T03:25:49.781Z,3.10
2019-06-28T03:27:53.355Z,3.23
2019-06-28T03:29:56.787Z,3.27
2019-06-28T03:32:00.234Z,2.90
2019-06-28T03:34:03.680Z,3.13
2019-06-28T03:36:07.194Z,3.10
2019-06-28T03:38:10.761Z,3.10
2019-06-28T03:40:14.548Z,3.27
2019-06-28T03:42:18.007Z,3.17
2019-06-28T03:44:21.427Z,3.10
2019-06-28T03:46:24.961Z,2.93
2019-06-28T03:48:28.383Z,3.13
2019-06-28T03:50:31.804Z,2.90
2019-06-28T03:52:35.262Z,3.30
2019-06-28T03:54:38.680Z,3.30
2019-06-28T03:56:42.231Z,3.47
2019-06-28T03:58:45.697Z,3.30
2019-06-28T04:00:49.224Z,3.47
2019-06-28T04:02:52.723Z,3.40
2019-06-28T04:04:56.146Z,3.40
2019-06-28T04:06:59.599Z,3.33
2019-06-28T04:09:03.021Z,3.40
2019-06-28T04:11:06.472Z,3.30
2019-06-28T04:13:10.000Z,3.00
2019-06-28T04:15:14.040Z,3.23
2019-06-28T04:17:17.491Z,3.50
2019-06-28T04:19:22.339Z,3.57
2019-06-28T04:21:25.843Z,3.73
2019-06-28T04:23:30.906Z,3.53
2019-06-28T04:25:34.485Z,3.67
2019-06-28T04:27:37.927Z,3.63
2019-06-28T04:29:44.208Z,3.67
2019-06-28T04:31:47.625Z,4.10
2019-06-28T04:33:51.083Z,3.73
2019-06-28T04:35:54.528Z,3.60
2019-06-28T04:37:57.947Z,4.23
2019-06-28T04:40:01.387Z,3.87
2019-06-28T04:42:05.144Z,3.47
2019-06-28T04:44:08.666Z,4.20
2019-06-28T04:46:12.633Z,3.90
2019-06-28T04:48:16.082Z,3.87
2019-06-28T04:50:19.654Z,3.90
2019-06-28T04:52:23.209Z,4.07
2019-06-28T04:54:26.759Z,3.77
2019-06-28T04:56:30.189Z,3.30
2019-06-28T04:58:33.634Z,4.03
2019-06-28T05:00:37.059Z,4.40
2019-06-28T05:02:40.491Z,4.00
2019-06-28T05:04:45.478Z,4.03
2019-06-28T05:06:48.963Z,3.90
2019-06-28T05:08:52.399Z,3.77
2019-06-28T05:10:55.824Z,3.70
2019-06-28T05:12:59.273Z,4.20
2019-06-28T05:15:06.352Z,3.90
2019-06-28T05:17:07.936Z,3.60
2019-06-28T05:19:11.391Z,4.00
2019-06-28T05:21:14.819Z,3.63
2019-06-28T05:23:19.892Z,3.67
2019-06-28T05:25:25.775Z,3.73
2019-06-28T05:27:29.200Z,3.30
2019-06-28T05:29:32.661Z,3.77
2019-06-28T05:31:38.034Z,3.50
2019-06-28T05:33:41.273Z,3.67
2019-06-28T05:35:44.843Z,3.30
2019-06-28T05:37:48.286Z,3.57
2019-06-28T05:39:51.804Z,3.50
2019-06-28T05:41:55.230Z,3.53
2019-06-28T05:43:58.647Z,3.50
2019-06-28T05:46:02.091Z,3.73
2019-06-28T05:48:05.746Z,3.30
2019-06-28T05:50:10.245Z,3.63
2019-06-28T05:52:13.667Z,3.33
2019-06-28T05:54:17.121Z,2.90
2019-06-28T05:56:20.541Z,3.17
2019-06-28T05:58:25.518Z,3.10
2019-06-28T06:00:29.096Z,2.93
2019-06-28T06:02:32.615Z,3.10
2019-06-28T06:04:36.196Z,2.90
2019-06-28T06:06:39.734Z,3.30
2019-06-28T06:08:44.798Z,2.70
2019-06-28T06:10:48.367Z,2.87
2019-06-28T06:12:51.816Z,2.90
2019-06-28T06:14:55.251Z,2.80
2019-06-28T06:16:58.682Z,3.63
2019-06-28T06:19:03.647Z,2.53
2019-06-28T06:21:07.175Z,2.67
2019-06-28T06:23:12.241Z,3.10
2019-06-28T06:25:15.752Z,2.63
2019-06-28T06:27:19.352Z,2.60
2019-06-28T06:29:22.889Z,2.60
2019-06-28T06:31:26.360Z,2.83
2019-06-28T06:33:29.780Z,2.87
2019-06-28T06:35:33.245Z,3.10
2019-06-28T06:37:36.880Z,3.07
2019-06-28T06:39:40.303Z,2.50
2019-06-28T06:41:43.762Z,3.10
2019-06-28T06:43:50.116Z,3.47
2019-06-28T06:45:53.719Z,2.60
2019-06-28T06:47:57.227Z,2.63
2019-06-28T06:50:00.723Z,2.37
2019-06-28T06:52:04.173Z,3.07
2019-06-28T06:54:07.607Z,2.80
2019-06-28T06:56:11.128Z,3.17
2019-06-28T06:58:14.559Z,2.63
2019-06-28T07:00:19.849Z,2.70
2019-06-28T07:02:33.290Z,2.90
2019-06-28T07:04:28.792Z,2.27
2019-06-28T07:06:32.237Z,2.60
2019-06-28T07:08:38.092Z,2.50
2019-06-28T07:10:41.659Z,3.10
2019-06-28T07:12:45.174Z,2.63
2019-06-28T07:14:48.597Z,2.70
2019-06-28T07:16:52.106Z,2.47
2019-06-28T07:18:57.569Z,2.53
2019-06-28T07:21:00.715Z,2.55
2019-06-28T07:23:04.237Z,2.93
2019-06-28T07:25:07.912Z,2.30
2019-06-28T07:27:11.463Z,2.50
2019-06-28T07:29:16.432Z,2.40
2019-06-28T07:31:19.866Z,2.67
2019-06-28T07:33:23.315Z,2.77
2019-06-28T07:35:26.795Z,2.60
2019-06-28T07:37:30.349Z,2.60
2019-06-28T07:39:36.532Z,2.60
2019-06-28T07:41:41.994Z,2.52
2019-06-28T07:43:45.283Z,2.57
2019-06-28T07:45:48.731Z,2.50
2019-06-28T07:47:52.199Z,2.70
2019-06-28T07:49:55.629Z,2.97
2019-06-28T07:51:59.154Z,2.73
2019-06-28T07:54:05.382Z,2.77
2019-06-28T07:56:08.960Z,2.20
2019-06-28T07:58:12.548Z,2.60
2019-06-28T08:00:17.710Z,2.70
2019-06-28T08:02:21.195Z,2.67
2019-06-28T08:04:25.596Z,2.92
2019-06-28T08:06:29.077Z,3.07
2019-06-28T08:08:32.543Z,3.17
2019-06-28T08:10:36.021Z,3.00
2019-06-28T08:12:39.566Z,2.50
2019-06-28T08:14:43.120Z,2.80
2019-06-28T08:16:46.545Z,2.50
2019-06-28T08:18:50.018Z,2.77
2019-06-28T08:20:53.523Z,2.67
2019-06-28T08:22:57.025Z,2.60
2019-06-28T08:25:00.472Z,2.47
2019-06-28T08:27:04.051Z,2.08
2019-06-28T08:29:07.492Z,2.10
2019-06-28T08:31:10.912Z,2.60
2019-06-28T08:33:15.942Z,2.20
2019-06-28T08:35:19.552Z,3.07
2019-06-28T08:37:23.126Z,3.20
2019-06-28T08:39:29.838Z,2.30
2019-06-28T08:41:31.773Z,2.40
2019-06-28T08:43:35.184Z,2.58
2019-06-28T08:45:38.641Z,2.55
2019-06-28T08:47:42.064Z,2.63
2019-06-28T08:49:45.520Z,2.60
2019-06-28T08:51:49.029Z,2.33
2019-06-28T08:53:52.448Z,2.83
2019-06-28T08:55:58.659Z,2.77
2019-06-28T08:58:13.354Z,2.60
2019-06-28T09:00:07.962Z,2.60
2019-06-28T09:02:11.595Z,2.65
2019-06-28T09:04:15.035Z,2.37
2019-06-28T09:06:18.592Z,2.65
2019-06-28T09:08:22.054Z,2.70
2019-06-28T09:10:25.780Z,2.83
2019-06-28T09:12:29.279Z,2.45
2019-06-28T09:14:32.724Z,2.47
2019-06-28T09:16:36.320Z,2.67
2019-06-28T09:18:39.741Z,2.40
2019-06-28T09:20:43.184Z,2.50
2019-06-28T09:22:46.617Z,2.70
2019-06-28T09:24:50.130Z,2.75
2019-06-28T09:26:53.547Z,2.33
2019-06-28T09:28:56.971Z,2.87
2019-06-28T09:31:00.427Z,2.60
2019-06-28T09:33:03.916Z,2.70
2019-06-28T09:35:07.576Z,2.70
2019-06-28T09:37:13.924Z,2.50
2019-06-28T09:39:16.173Z,2.70
2019-06-28T09:41:19.650Z,2.80
2019-06-28T09:43:23.172Z,2.80
2019-06-28T09:45:26.695Z,2.67
2019-06-28T09:47:30.193Z,2.20
2019-06-28T09:49:33.621Z,2.33
2019-06-28T09:51:37.133Z,2.40
2019-06-28T09:53:40.623Z,2.50
2019-06-28T09:55:44.235Z,2.27
2019-06-28T09:57:47.795Z,2.52
2019-06-28T09:59:51.327Z,2.12
2019-06-28T10:01:57.199Z,2.30
2019-06-28T10:03:59.999Z,2.30
2019-06-28T10:06:03.467Z,2.00
2019-06-28T10:08:06.992Z,2.10
2019-06-28T10:10:11.103Z,2.35
2019-06-28T10:12:14.628Z,2.05
2019-06-28T10:14:18.135Z,2.20
2019-06-28T10:16:25.851Z,2.10
2019-06-28T10:36:45.814Z,2.33
2019-06-28T10:38:49.255Z,2.85
2019-06-28T10:40:52.883Z,2.58
2019-06-28T10:42:56.407Z,2.33
2019-06-28T10:44:59.998Z,2.25
2019-06-28T10:47:03.593Z,2.90
2019-06-28T10:49:07.031Z,2.33
2019-06-28T10:51:10.484Z,2.12
2019-06-28T10:53:13.923Z,2.50
2019-06-28T10:55:17.521Z,2.50
2019-06-28T10:57:20.953Z,2.33
2019-06-28T10:59:24.382Z,2.70
2019-06-28T11:01:27.817Z,2.58
2019-06-28T11:03:31.268Z,2.17
2019-06-28T11:05:34.839Z,2.50
2019-06-28T11:07:38.277Z,2.65
2019-06-28T11:09:41.848Z,2.42
2019-06-28T11:11:45.296Z,2.70
2019-06-28T11:13:48.807Z,2.77
2019-06-28T11:15:52.301Z,2.58
2019-06-28T11:17:55.726Z,2.75
2019-06-28T11:19:59.183Z,2.58
2019-06-28T11:22:02.643Z,2.27
2019-06-28T11:24:06.127Z,2.30
2019-06-28T11:26:12.155Z,2.58
2019-06-28T11:28:14.951Z,2.40
2019-06-28T11:30:18.624Z,2.90
2019-06-28T11:32:22.131Z,2.60
2019-06-28T11:34:25.936Z,2.72
2019-06-28T11:36:29.374Z,2.45
2019-06-28T11:38:32.809Z,2.70
2019-06-28T11:40:36.324Z,2.35
2019-06-28T11:42:39.836Z,2.67
2019-06-28T11:44:43.304Z,2.35
2019-06-28T11:46:46.797Z,2.00
2019-06-28T11:48:50.280Z,2.10
2019-06-28T11:50:53.743Z,2.37
2019-06-28T11:52:57.160Z,2.02
2019-06-28T11:55:00.701Z,2.62
2019-06-28T11:57:04.123Z,3.12
2019-06-28T11:59:07.583Z,2.40
2019-06-28T12:01:11.025Z,2.40
2019-06-28T12:03:14.457Z,2.20
2019-06-28T12:05:18.081Z,2.55
2019-06-28T12:07:21.508Z,2.58
2019-06-28T12:09:24.949Z,2.70
2019-06-28T12:11:28.461Z,2.55
2019-06-28T12:13:31.960Z,2.25
2019-06-28T12:15:35.396Z,2.77
2019-06-28T12:17:38.830Z,2.55
2019-06-28T12:19:42.334Z,2.75
2019-06-28T12:21:45.787Z,2.80
2019-06-28T12:23:49.208Z,2.65
2019-06-28T12:25:52.735Z,2.80
2019-06-28T12:27:56.250Z,2.70
2019-06-28T12:29:59.788Z,2.42
2019-06-28T12:32:03.249Z,2.50
2019-06-28T12:34:06.680Z,2.65
2019-06-28T12:36:10.199Z,2.40
2019-06-28T12:38:13.621Z,2.47
2019-06-28T12:40:17.812Z,2.25
2019-06-28T12:42:21.298Z,2.08
2019-06-28T12:44:24.719Z,2.17
2019-06-28T12:46:28.242Z,2.42
2019-06-28T12:48:31.664Z,2.35
2019-06-28T12:50:35.166Z,2.33
2019-06-28T12:52:38.619Z,2.25
2019-06-28T12:54:42.056Z,2.20
2019-06-28T12:56:45.661Z,2.35
2019-06-28T12:58:49.156Z,2.50
2019-06-28T13:00:52.573Z,2.02
2019-06-28T13:02:56.086Z,2.02
2019-06-28T13:04:59.525Z,2.20
2019-06-28T13:07:18.837Z,2.02
2019-06-28T13:09:08.192Z,2.08
2019-06-28T13:11:11.615Z,1.87
2019-06-28T13:13:15.131Z,2.05
2019-06-28T13:15:18.712Z,2.15
2019-06-28T13:17:22.164Z,2.02
2019-06-28T13:19:25.591Z,2.12
2019-06-28T13:21:29.028Z,1.92
2019-06-28T13:23:32.488Z,2.30
2019-06-28T13:25:35.988Z,2.12
2019-06-28T13:27:39.446Z,1.80
2019-06-28T13:29:42.865Z,2.00
2019-06-28T13:31:46.355Z,1.98
2019-06-28T13:33:49.810Z,2.15
2019-06-28T13:35:53.251Z,2.08
2019-06-28T13:37:56.753Z,2.00
2019-06-28T13:40:00.185Z,1.90
2019-06-28T13:42:03.665Z,1.98
2019-06-28T13:44:07.177Z,1.98
2019-06-28T13:46:10.610Z,2.05
2019-06-28T13:48:22.434Z,2.22
2019-06-28T13:50:19.379Z,1.77
2019-06-28T13:52:22.849Z,1.80
2019-06-28T13:54:26.380Z,2.02
2019-06-28T13:56:29.947Z,2.17
2019-06-28T13:58:33.385Z,1.87
2019-06-28T14:00:37.073Z,2.33
2019-06-28T14:02:40.562Z,2.42
2019-06-28T14:04:44.016Z,1.90
2019-06-28T14:06:47.509Z,1.90
2019-06-28T14:08:51.091Z,2.20
2019-06-28T14:10:54.526Z,2.10
2019-06-28T14:12:57.962Z,1.95
2019-06-28T14:15:01.497Z,1.95
2019-06-28T14:17:04.975Z,2.10
2019-06-28T14:19:08.417Z,2.42
2019-06-28T14:21:11.927Z,2.30
2019-06-28T14:23:15.361Z,2.47
2019-06-28T14:25:19.137Z,2.50
2019-06-28T14:27:22.564Z,2.10
2019-06-28T14:29:26.102Z,2.20
2019-06-28T14:31:29.524Z,2.60
2019-06-28T14:33:32.958Z,2.60
2019-06-28T14:35:36.540Z,2.27
2019-06-28T14:37:40.059Z,2.35
2019-06-28T14:39:43.639Z,2.17
2019-06-28T14:41:47.083Z,2.30
2019-06-28T14:43:50.493Z,2.05
2019-06-28T14:45:54.015Z,2.27
2019-06-28T14:47:57.451Z,2.02
2019-06-28T14:50:00.942Z,2.22
2019-06-28T14:52:04.451Z,2.10
2019-06-28T14:54:07.947Z,2.10
2019-06-28T14:56:11.395Z,1.80
2019-06-28T14:58:14.812Z,1.90
2019-06-28T15:00:21.570Z,2.12
2019-06-28T15:02:25.051Z,2.27
2019-06-28T15:04:28.606Z,2.20
2019-06-28T15:06:32.043Z,2.58
2019-06-28T15:08:35.488Z,2.00
2019-06-28T15:10:39.379Z,2.15
2019-06-28T15:12:42.795Z,2.27
2019-06-28T15:14:46.368Z,2.37
2019-06-28T15:16:49.900Z,2.02
2019-06-28T15:18:53.400Z,2.15
2019-06-28T15:20:56.837Z,2.50
2019-06-28T15:23:00.272Z,1.98
2019-06-28T15:25:04.009Z,2.00
2019-06-28T15:27:07.511Z,2.17
2019-06-28T15:29:10.933Z,2.00
2019-06-28T15:31:14.455Z,2.37
2019-06-28T15:33:18.027Z,2.27
2019-06-28T15:35:21.585Z,2.20
2019-06-28T15:37:25.109Z,2.33
2019-06-28T15:39:28.535Z,1.82
2019-06-28T15:41:31.946Z,2.33
2019-06-28T15:43:35.395Z,2.05
2019-06-28T15:45:38.835Z,2.08
2019-06-28T15:47:42.277Z,5.12
2019-06-28T15:49:45.702Z,2.20
2019-06-28T15:51:49.182Z,2.40
2019-06-28T15:54:06.322Z,2.12
2019-06-28T15:55:57.920Z,2.20
2019-06-28T15:58:01.367Z,2.30
2019-06-28T16:00:08.513Z,2.20
2019-06-28T16:02:12.062Z,1.92
2019-06-28T16:04:15.559Z,2.17
2019-06-28T16:06:19.062Z,2.10
2019-06-28T16:08:22.745Z,2.15
2019-06-28T16:10:26.416Z,2.20
2019-06-28T16:12:29.992Z,2.20
2019-06-28T16:14:33.476Z,1.90
2019-06-28T16:16:36.899Z,1.65
2019-06-28T16:18:40.435Z,2.05
2019-06-28T16:20:43.862Z,1.67
2019-06-28T16:22:47.327Z,2.30
2019-06-28T16:24:50.797Z,2.30
2019-06-28T16:26:54.314Z,2.30
2019-06-28T16:28:57.765Z,2.15
2019-06-28T16:31:01.196Z,2.30
2019-06-28T16:33:04.627Z,2.00
2019-06-28T16:35:08.319Z,2.00
2019-06-28T16:37:11.735Z,1.90
2019-06-28T16:39:15.191Z,2.20
2019-06-28T16:41:18.624Z,2.10
2019-06-28T16:43:22.140Z,2.08
2019-06-28T16:45:25.713Z,2.05
2019-06-28T16:47:29.206Z,2.17
2019-06-28T16:49:32.672Z,2.00
2019-06-28T16:51:36.165Z,1.92
2019-06-28T16:53:39.777Z,1.62
2019-06-28T16:55:43.432Z,2.40
2019-06-28T16:57:46.852Z,2.00
2019-06-28T16:59:50.316Z,2.10
2019-06-28T17:01:53.811Z,1.98
2019-06-28T17:03:57.243Z,2.55
2019-06-28T17:06:00.664Z,2.35
2019-06-28T17:08:04.094Z,2.50
2019-06-28T17:10:08.403Z,2.55
2019-06-28T17:12:11.877Z,2.58
2019-06-28T17:14:15.389Z,2.30
2019-06-28T17:16:18.854Z,2.50
2019-06-28T17:18:25.259Z,2.62
2019-06-28T17:20:27.690Z,2.10
2019-06-28T17:22:31.118Z,2.45
2019-06-28T17:24:34.564Z,2.80
2019-06-28T17:26:38.082Z,2.85
2019-06-28T17:28:41.513Z,2.50
2019-06-28T17:30:45.021Z,2.70
2019-06-28T17:32:48.508Z,2.70
2019-06-28T17:34:51.970Z,2.75
2019-06-28T17:36:55.419Z,2.70
2019-06-28T17:38:58.856Z,2.60
2019-06-28T17:41:02.403Z,2.40
2019-06-28T17:43:05.892Z,2.90
2019-06-28T17:45:09.798Z,2.62
2019-06-28T17:47:13.225Z,2.80
2019-06-28T17:49:16.662Z,2.40
2019-06-28T17:51:20.247Z,2.47
2019-06-28T17:53:23.905Z,2.58
2019-06-28T17:55:27.430Z,2.47
2019-06-28T17:57:30.861Z,2.15
2019-06-28T17:59:34.295Z,2.70
2019-06-28T18:01:37.817Z,3.00
2019-06-28T18:03:41.281Z,2.50
2019-06-28T18:05:44.737Z,2.85
2019-06-28T18:07:48.163Z,2.00
2019-06-28T18:09:51.621Z,2.50
2019-06-28T18:11:55.095Z,2.55
2019-06-28T18:13:58.528Z,3.00
2019-06-28T18:16:01.982Z,3.47
2019-06-28T18:18:05.435Z,2.77
2019-06-28T18:20:09.407Z,2.60
2019-06-28T18:22:12.956Z,2.83
2019-06-28T18:24:16.566Z,2.70
2019-06-28T18:26:20.007Z,3.05
2019-06-28T18:28:23.453Z,2.58
2019-06-28T18:30:27.035Z,2.30
2019-06-28T18:32:30.459Z,2.87
2019-06-28T18:34:33.897Z,2.92
2019-06-28T18:36:37.395Z,2.80
2019-06-28T18:38:40.823Z,2.70
2019-06-28T18:40:44.969Z,3.30
2019-06-28T18:42:48.408Z,4.70
2019-06-28T18:44:51.905Z,7.42
2019-06-28T18:46:55.407Z,12.15
2019-06-28T18:48:58.919Z,9.38
2019-06-28T18:51:08.621Z,7.78
2019-06-28T18:53:07.543Z,3.90
2019-06-28T18:55:11.335Z,3.00
2019-06-28T18:57:14.934Z,2.90
2019-06-28T18:59:20.487Z,2.60
2019-06-28T19:01:23.615Z,4.60
2019-06-28T19:03:27.128Z,4.10
2019-06-28T19:05:30.560Z,4.95
2019-06-28T19:07:34.309Z,3.02
2019-06-28T19:09:37.821Z,2.87
2019-06-28T19:11:41.270Z,2.92
2019-06-28T19:13:44.709Z,2.67
2019-06-28T19:15:48.149Z,2.90
2019-06-28T19:17:51.598Z,2.87
2019-06-28T19:19:55.034Z,3.33
2019-06-28T19:21:58.513Z,3.02
2019-06-28T19:24:02.037Z,2.83
2019-06-28T19:26:05.772Z,2.47
2019-06-28T19:28:09.220Z,3.00
2019-06-28T19:30:12.825Z,2.83
2019-06-28T19:32:16.849Z,3.05
2019-06-28T19:34:20.324Z,3.08
2019-06-28T19:36:23.760Z,14.10
2019-06-28T19:38:27.225Z,14.47
2019-06-28T19:40:30.682Z,6.70
2019-06-28T19:42:34.107Z,4.50
2019-06-28T19:44:37.800Z,4.17
2019-06-28T19:46:41.219Z,3.80
2019-06-28T19:48:44.679Z,3.30
2019-06-28T19:50:48.099Z,4.92
2019-06-28T19:52:51.533Z,5.80
2019-06-28T19:54:55.449Z,4.20
2019-06-28T19:56:58.940Z,8.50
2019-06-28T19:59:02.401Z,6.65
2019-06-28T20:01:05.970Z,4.87
2019-06-28T20:03:09.403Z,4.22
2019-06-28T20:05:12.993Z,3.65
2019-06-28T20:07:16.432Z,3.47
2019-06-28T20:09:19.895Z,3.60
2019-06-28T20:11:23.316Z,3.77
2019-06-28T20:13:26.831Z,3.27
2019-06-28T20:15:30.356Z,3.40
2019-06-28T20:17:33.851Z,3.75
2019-06-28T20:19:37.302Z,3.35
2019-06-28T20:21:44.555Z,3.20
2019-06-28T20:23:45.894Z,3.02
2019-06-28T20:25:49.390Z,3.55
2019-06-28T20:27:52.843Z,3.37
2019-06-28T20:29:56.323Z,3.70
2019-06-28T20:31:59.754Z,3.52
2019-06-28T20:34:03.268Z,3.60
2019-06-28T20:36:06.690Z,3.53
2019-06-28T20:38:10.121Z,3.87
2019-06-28T20:40:13.822Z,3.27
2019-06-28T20:42:17.260Z,3.60
2019-06-28T20:44:20.819Z,3.90
2019-06-28T20:46:24.336Z,3.92
2019-06-28T20:48:27.754Z,4.03
2019-06-28T20:50:31.269Z,6.00
2019-06-28T20:52:34.694Z,5.00
2019-06-28T20:54:38.179Z,5.58
2019-06-28T20:56:41.617Z,6.30
2019-06-28T20:58:45.039Z,5.28
2019-06-28T21:00:48.511Z,4.67
2019-06-28T21:02:52.023Z,3.97
2019-06-28T21:04:55.535Z,3.95
2019-06-28T21:06:59.096Z,4.00
2019-06-28T21:09:02.519Z,4.57
2019-06-28T21:11:06.031Z,4.07
2019-06-28T21:13:09.588Z,4.08
2019-06-28T21:15:13.560Z,4.12
2019-06-28T21:17:17.064Z,3.75
2019-06-28T21:19:20.570Z,4.40
2019-06-28T21:21:24.010Z,4.03
2019-06-28T21:23:27.431Z,3.97
2019-06-28T21:25:30.871Z,3.60
2019-06-28T21:27:34.314Z,3.77
2019-06-28T21:29:37.896Z,3.50
2019-06-28T21:31:41.412Z,4.07
2019-06-28T21:33:44.912Z,3.80
2019-06-28T21:35:50.704Z,3.80
2019-06-28T21:37:53.546Z,4.30
2019-06-28T21:39:56.976Z,4.17
2019-06-28T21:42:00.423Z,3.90
2019-06-28T21:44:03.946Z,4.10
2019-06-28T21:46:07.366Z,4.13
2019-06-28T21:48:10.803Z,3.50
2019-06-28T21:50:14.563Z,3.70
2019-06-28T21:52:18.007Z,3.83
2019-06-28T21:54:22.248Z,4.03
2019-06-28T21:56:25.774Z,4.10
2019-06-28T21:58:29.292Z,4.40
2019-06-28T22:00:49.512Z,4.30
2019-06-28T22:02:53.065Z,3.87
2019-06-28T22:04:56.555Z,3.70
2019-06-28T22:07:00.133Z,3.87
2019-06-28T22:09:04.787Z,3.58
2019-06-28T22:11:08.295Z,4.47
2019-06-28T22:13:11.829Z,3.83
2019-06-28T22:15:15.387Z,3.77
2019-06-28T22:17:18.861Z,4.20
2019-06-28T22:19:22.367Z,3.70
2019-06-28T22:21:25.797Z,3.70
2019-06-28T22:23:29.243Z,4.80
2019-06-28T22:25:32.740Z,3.70
2019-06-28T22:27:36.195Z,4.10
2019-06-28T22:29:39.700Z,3.90
2019-06-28T22:31:43.193Z,4.03
2019-06-28T22:33:46.642Z,4.30
2019-06-28T22:35:50.060Z,3.80
2019-06-28T22:37:53.482Z,4.23
2019-06-28T22:39:56.922Z,3.97
2019-06-28T22:42:00.410Z,4.00
2019-06-28T22:44:04.021Z,3.97
2019-06-28T22:46:07.464Z,3.70
2019-06-28T22:48:10.977Z,4.00
2019-06-28T22:50:15.369Z,4.00
2019-06-28T22:52:18.809Z,3.70
2019-06-28T22:54:22.263Z,3.23
2019-06-28T22:56:25.688Z,4.40
2019-06-28T22:58:29.123Z,4.07
2019-06-28T23:00:32.571Z,4.10
2019-06-28T23:02:36.021Z,4.17
2019-06-28T23:04:39.468Z,4.27
2019-06-28T23:06:42.889Z,4.23
2019-06-28T23:08:46.365Z,4.03
2019-06-28T23:10:49.812Z,4.00
2019-06-28T23:12:55.149Z,4.03
2019-06-28T23:14:58.416Z,4.53
2019-06-28T23:17:01.847Z,3.70
2019-06-28T23:19:05.255Z,3.77
2019-06-28T23:21:08.710Z,4.10
2019-06-28T23:23:12.123Z,4.23
2019-06-28T23:25:15.572Z,4.07
2019-06-28T23:27:19.003Z,4.03
2019-06-28T23:29:22.517Z,3.90
2019-06-28T23:31:25.976Z,4.20
2019-06-28T23:33:29.410Z,4.23
2019-06-28T23:35:33.210Z,4.70
2019-06-28T23:37:36.644Z,4.40
2019-06-28T23:39:40.070Z,4.00
2019-06-28T23:41:43.593Z,4.40
2019-06-28T23:43:47.092Z,4.30
2019-06-28T23:45:50.557Z,3.90
2019-06-28T23:48:07.428Z,4.53
2019-06-28T23:49:59.406Z,4.43
2019-06-28T23:52:02.839Z,4.40
2019-06-28T23:54:06.285Z,4.73
2019-06-28T23:56:09.729Z,4.17
2019-06-28T23:58:13.232Z,4.77
